User Preferences

Timezone
Units
Lat/Lon format
Defaults

Geo and time bounds

236 - KODIAK, AK   Notice:02/08/2018 Deployed buoy Mobile View
112 records
Date
(UTC)
Hs
(ft)
Tp
(s)
Dp
(deg)
Ta
(s)
SST
(F)
Current sp
(kt)
Current dir
(deg)
2019-06-19 19:30 4.07 7.69 194 6.52 51.1 0.27 166.0
2019-06-19 15:30 3.71 8.00 185 7.23 50.7 0.45 111.0
2019-06-19 11:30 3.84 16.67 182 7.00 50.9 0.08 314.0
2019-06-19 07:30 4.13 7.14 167 7.05 51.6 0.29 56.0
2019-06-19 03:30 4.33 7.69 184 7.53 53.8 0.58 57.0
2019-06-18 23:30 4.07 6.67 157 6.38 52.5 0.27 342.0
2019-06-18 19:30 4.23 6.67 152 6.09 50.4 0.58 198.0
2019-06-18 15:30 4.27 7.69 173 6.57 49.6 1.01 148.0
2019-06-18 11:30 4.79 7.41 166 6.00 49.6 0.17 305.0
2019-06-18 07:30 5.64 8.00 159 6.08 49.5 0.14 117.0
2019-06-18 03:30 5.18 8.00 161 6.73 49.8 0.54 75.0
2019-06-17 23:30 6.07 8.00 155 6.64 49.8 0.37 9.0
2019-06-17 19:30 6.69 7.14 125 5.93 49.5 0.45 220.0
2019-06-17 15:30 7.61 8.70 133 6.11 49.1 1.09 163.0
2019-06-17 11:30 7.48 8.33 124 5.93 48.9 0.23 322.0
2019-06-17 07:30 7.81 6.25 99 5.45 48.7 0.31 217.0
2019-06-17 03:30 6.07 6.67 116 5.38 49.5 0.60 101.0
2019-06-16 23:30 4.95 8.00 134 5.49 49.6 0.33 15.0
2019-06-16 19:30 5.09 7.14 147 5.64 49.8 0.27 264.0
2019-06-16 15:30 4.33 8.70 195 6.74 0.84 142.0
2019-06-16 11:30 4.40 8.70 200 7.30 49.6 0.10 133.0
2019-06-16 07:30 4.99 8.70 195 6.67 50.2 0.19 286.0
2019-06-16 03:30 4.89 8.70 185 6.95 50.4 0.35 77.0
2019-06-15 23:30 4.72 8.70 180 6.67 50.0 0.45 49.0
2019-06-15 19:30 7.15 7.69 188 6.37 48.9 0.10 291.0
2019-06-15 15:30 7.12 8.70 177 6.61 49.1 0.66 165.0
2019-06-15 11:30 6.43 8.33 170 6.18 48.7 0.39 126.0
2019-06-15 07:30 7.22 9.52 188 6.08 48.7 0.27 334.0
2019-06-15 03:30 7.38 9.09 187 6.26 48.9 0.25 72.0
2019-06-14 23:30 6.00 6.67 165 5.69 49.1 0.39 59.0
2019-06-14 19:30 6.07 7.69 195 5.20 49.6 0.49 312.0
2019-06-14 15:30 4.63 8.00 186 5.05 49.8 0.68 181.0
2019-06-14 11:30 3.61 8.33 173 5.76 49.3 0.47 119.0
2019-06-14 07:30 3.41 8.70 170 5.70 49.5 0.31 22.0
2019-06-14 03:30 3.97 9.09 180 6.23 50.4 0.04 174.0
2019-06-13 23:30 4.07 9.09 177 6.93 50.2 0.17 130.0
2019-06-13 19:30 4.23 8.70 184 6.52 50.2 0.31 351.0
2019-06-13 15:30 4.76 9.52 180 6.71 50.0 0.41 210.0
2019-06-13 11:30 4.53 9.52 174 6.91 49.3 0.58 146.0
2019-06-13 07:30 4.82 8.70 169 6.97 49.5 0.33 72.0
2019-06-13 03:30 5.91 10.00 184 7.14 49.8 0.02 245.0
2019-06-12 23:30 6.00 10.00 184 7.19 48.4 0.54 116.0
2019-06-12 19:30 6.43 10.53 179 7.53 48.9 0.00 146.0
2019-06-12 15:30 7.19 11.11 182 7.52 48.4 0.21 178.0
2019-06-12 11:30 7.48 11.11 175 7.63 48.0 0.43 118.0
2019-06-12 07:30 6.89 11.11 179 7.79 48.9 0.27 86.0
2019-06-11 23:30 5.61 7.69 124 5.16 49.3 0.56 169.0
2019-06-11 19:30 5.81 6.90 118 5.32 48.6 0.31 156.0
2019-06-11 15:30 5.18 6.67 102 4.97 48.7 0.23 226.0
2019-06-11 11:30 6.04 8.33 127 5.33 48.6 0.49 144.0
2019-06-11 07:30 5.87 8.33 116 5.84 48.6 0.06 51.0
2019-06-11 03:30 6.53 8.70 113 5.87 49.1 0.27 334.0
2019-06-10 23:30 5.81 8.70 126 5.86 49.3 0.58 183.0
2019-06-10 19:30 5.45 9.09 129 6.31 48.4 0.17 191.0
2019-06-10 15:30 5.31 8.70 133 6.62 48.6 0.16 287.0
2019-06-10 11:30 6.27 9.52 139 7.01 48.6 0.43 150.0
2019-06-10 07:30 5.84 9.09 135 7.23 48.4 0.56 53.0
2019-06-10 03:30 6.40 9.09 138 7.13 49.1 0.43 341.0
2019-06-09 23:30 6.56 9.52 152 7.03 48.7 0.45 222.0
2019-06-09 19:30 5.61 9.52 163 6.96 48.4 0.86 145.0
2019-06-09 15:30 5.31 9.52 172 7.03 48.9 0.17 18.0
2019-06-09 11:30 6.59 9.52 165 7.51 48.6 0.35 197.0
2019-06-09 07:30 4.07 9.52 179 8.03 49.6 0.54 87.0
2019-06-09 03:30 4.10 10.00 186 8.08 49.3 0.78 10.0
2019-06-08 23:30 5.18 10.00 195 8.10 49.1 0.35 290.0
2019-06-08 19:30 3.64 10.53 193 8.40 48.7 0.80 139.0
2019-06-08 15:30 2.69 11.11 192 6.13 49.5 0.29 105.0
2019-06-08 11:30 2.95 14.29 161 4.96 49.3 0.31 344.0
2019-06-08 07:30 2.53 15.38 137 5.35 49.8 0.37 119.0
2019-06-08 03:30 2.69 15.38 136 5.56 50.0 0.62 43.0
2019-06-07 23:30 2.99 15.38 144 5.26 49.3 0.31 323.0
2019-06-07 19:30 2.82 15.38 148 6.51 50.4 0.86 180.0
2019-06-07 15:30 2.46 15.38 150 6.28 49.1 0.29 99.0
2019-06-07 11:30 3.08 5.56 217 5.33 49.5 0.25 322.0
2019-06-07 07:30 2.56 5.71 212 6.10 49.8 0.33 102.0
2019-06-07 03:30 2.30 13.33 183 5.71 50.4 0.43 45.0
2019-06-06 23:30 3.02 14.29 152 4.80 50.0 0.45 323.0
2019-06-06 19:30 2.82 14.29 153 6.45 49.5 0.84 164.0
2019-06-06 15:30 2.59 14.29 160 6.76 48.2 0.27 99.0
2019-06-06 11:30 2.76 15.38 155 5.04 48.7 0.39 326.0
2019-06-06 07:30 2.76 13.33 168 5.68 49.1 0.14 144.0
2019-06-06 03:30 2.20 15.38 152 5.36 48.9 0.84 55.0
2019-06-05 23:30 3.05 5.26 200 4.69 49.5 0.47 357.0
2019-06-05 19:30 3.18 6.90 193 6.49 49.1 0.68 164.0
2019-06-05 15:30 2.82 13.33 169 7.07 47.3 0.54 118.0
2019-06-05 11:30 2.76 13.33 180 6.39 47.1 0.31 325.0
2019-06-05 07:30 3.05 7.69 171 5.80 47.1 0.21 47.0
2019-06-05 03:30 3.05 14.29 171 5.80 47.7 0.56 77.0
2019-06-04 23:30 3.61 13.33 175 5.30 47.7 0.49 346.0
2019-06-04 19:30 3.58 6.90 179 5.89 47.3 0.52 168.0
2019-06-04 15:30 3.31 14.29 173 5.91 46.8 0.56 132.0
2019-06-04 11:30 3.74 13.33 155 5.13 46.9 0.45 12.0
2019-06-04 07:30 3.67 13.33 159 4.76 46.9 0.27 18.0
2019-06-04 03:30 3.54 14.29 156 4.65 47.1 0.54 94.0
2019-06-03 23:30 3.97 6.90 161 4.38 47.3 0.45 16.0
2019-06-03 19:30 3.97 7.14 161 5.33 47.1 0.35 225.0
2019-06-03 15:30 3.31 15.38 160 6.19 46.8 0.76 146.0
2019-06-03 11:30 4.13 7.14 168 5.06 47.5 0.47 55.0
2019-06-03 07:30 4.07 6.90 171 6.07 47.8 0.45 347.0
2019-06-03 03:30 3.97 6.90 173 7.23 50.0 0.41 87.0
2019-06-02 23:30 3.64 14.29 172 6.09 49.6 0.49 6.0
2019-06-02 19:30 3.94 6.67 194 5.74 47.1 0.45 238.0
2019-06-02 15:30 3.48 15.38 168 7.31 46.8 0.80 160.0
2019-06-02 11:30 3.44 15.38 153 6.97 47.3 0.19 49.0
2019-06-02 07:30 3.84 6.67 174 6.00 46.8 0.43 337.0
2019-06-02 03:30 4.07 15.38 155 6.54 46.9 0.19 156.0
2019-06-01 23:30 4.07 15.38 149 6.00 46.8 0.49 40.0
2019-06-01 19:30 4.86 7.41 194 6.09 46.4 0.45 307.0
2019-06-01 15:30 4.59 7.41 171 7.22 46.2 0.52 167.0
2019-06-01 11:30 4.46 8.00 167 6.87 46.4 0.51 90.0
2019-06-01 07:30 4.99 8.33 193 6.18 46.4 0.60 358.0
2019-06-01 03:30 5.48 7.69 174 6.72 46.6 0.08 338.0